Time;durP1;ratioP1;P1;durP2;ratioP2;P2;SDS_P1;SDS_P2;PMS_P1;PMS_P2;Temp;Humidity;BMP_temperature;BMP_pressure;BME280_temperature;BME280_humidity;BME280_pressure;Samples;Min_cycle;Max_cycle;Signal;HPM_P1;HPM_P2
2023/06/16 00:00:37;;;;;;;2.45;1.17;;;25.60;1.00;;;;;;4878057;29;20497;-50
2023/06/16 00:03:05;;;;;;;2.13;1.50;;;25.70;1.00;;;;;;4878039;29;20472;-61
2023/06/16 00:05:34;;;;;;;8.13;1.80;;;25.70;1.00;;;;;;4872108;29;20512;-50
2023/06/16 00:08:03;;;;;;;4.03;1.98;;;25.60;1.00;;;;;;4869754;29;20133;-46
2023/06/16 00:10:30;;;;;;;2.33;1.70;;;25.60;1.00;;;;;;4877894;29;20052;-50
2023/06/16 00:12:56;;;;;;;2.97;1.48;;;25.70;1.00;;;;;;4878000;29;20045;-51
2023/06/16 00:15:24;;;;;;;2.25;1.55;;;25.70;1.00;;;;;;4878125;29;20056;-49
2023/06/16 00:17:52;;;;;;;3.70;1.30;;;25.60;1.00;;;;;;4878043;29;20052;-49
2023/06/16 00:20:20;;;;;;;2.90;1.85;;;25.60;1.00;;;;;;4878043;29;20048;-50
2023/06/16 00:22:50;;;;;;;2.08;1.38;;;25.70;1.00;;;;;;4877912;29;20090;-50
2023/06/16 00:25:18;;;;;;;4.05;1.50;;;25.60;1.00;;;;;;4878100;29;20056;-50
2023/06/16 00:27:46;;;;;;;2.15;1.70;;;25.70;1.00;;;;;;4878054;29;20494;-51
2023/06/16 00:30:13;;;;;;;2.15;1.55;;;25.60;1.00;;;;;;4877839;29;20045;-51
2023/06/16 00:32:40;;;;;;;2.08;1.45;;;25.60;1.00;;;;;;4877644;29;20120;-47
2023/06/16 00:35:08;;;;;;;3.67;1.45;;;25.60;1.00;;;;;;4873352;29;20049;-46
2023/06/16 00:37:35;;;;;;;2.63;1.75;;;25.60;1.00;;;;;;4877866;29;20072;-49
2023/06/16 00:40:04;;;;;;;2.65;1.80;;;25.60;1.00;;;;;;4877664;29;20073;-50
2023/06/16 00:42:31;;;;;;;4.05;2.33;;;25.60;1.00;;;;;;4876344;29;20525;-50
2023/06/16 00:44:59;;;;;;;2.55;1.50;;;25.60;1.00;;;;;;4881220;29;20041;-49
2023/06/16 00:47:26;;;;;;;3.50;1.60;;;25.60;1.00;;;;;;4880366;29;20417;-51
2023/06/16 00:49:53;;;;;;;2.08;1.20;;;25.60;1.00;;;;;;4880289;29;20064;-50
2023/06/16 00:52:23;;;;;;;2.95;1.52;;;25.60;1.00;;;;;;4880129;29;20083;-46
2023/06/16 00:54:51;;;;;;;2.15;1.30;;;25.60;1.00;;;;;;4880227;29;20057;-50
2023/06/16 00:57:18;;;;;;;1.98;1.65;;;25.60;1.00;;;;;;4881516;29;20521;-46
2023/06/16 00:59:46;;;;;;;5.53;2.13;;;25.60;1.00;;;;;;4881567;29;20450;-48
2023/06/16 01:02:13;;;;;;;4.13;1.70;;;25.60;1.00;;;;;;4880070;29;20061;-46
2023/06/16 01:04:40;;;;;;;2.95;1.63;;;25.50;1.00;;;;;;4880768;29;20081;-50
2023/06/16 01:07:13;;;;;;;2.97;1.20;;;25.60;1.00;;;;;;4877717;29;20048;-48
2023/06/16 01:10:07;;;;;;;2.13;1.48;;;25.50;1.00;;;;;;4882926;29;20045;-51
2023/06/16 01:13:11;;;;;;;3.65;1.58;;;25.50;1.00;;;;;;4881654;29;20059;-51
2023/06/16 01:15:42;;;;;;;2.40;1.80;;;25.50;1.00;;;;;;4878843;29;20394;-51
2023/06/16 01:18:14;;;;;;;2.30;1.55;;;25.50;1.00;;;;;;4881330;29;20048;-51
2023/06/16 01:20:59;;;;;;;3.10;1.83;;;25.50;1.00;;;;;;4881102;29;20069;-51
2023/06/16 01:23:56;;;;;;;3.28;1.73;;;25.50;1.00;;;;;;4881212;29;20430;-51
2023/06/16 01:26:28;;;;;;;3.75;1.85;;;25.50;1.00;;;;;;4879646;29;20100;-52
2023/06/16 01:28:55;;;;;;;4.00;1.90;;;25.50;1.00;;;;;;4879730;29;20059;-51
2023/06/16 01:31:25;;;;;;;2.83;1.60;;;25.50;1.00;;;;;;4879237;29;20072;-48
2023/06/16 01:33:52;;;;;;;2.70;1.45;;;25.50;1.00;;;;;;4880888;29;20097;-51
2023/06/16 01:36:22;;;;;;;3.45;1.50;;;25.50;1.00;;;;;;4871502;29;20136;-50
2023/06/16 01:38:53;;;;;;;2.92;2.00;;;25.50;1.00;;;;;;4878254;29;20037;-50
2023/06/16 01:41:21;;;;;;;2.38;1.70;;;25.50;1.00;;;;;;4879330;29;20065;-51
2023/06/16 01:43:48;;;;;;;2.17;1.52;;;25.50;1.00;;;;;;4879397;29;20121;-51
2023/06/16 01:46:16;;;;;;;2.47;1.85;;;25.40;1.00;;;;;;4879496;29;20509;-48
2023/06/16 01:48:44;;;;;;;3.17;1.70;;;25.50;1.00;;;;;;4880799;29;20320;-51
2023/06/16 01:51:11;;;;;;;2.47;1.58;;;25.50;1.00;;;;;;4879234;29;20056;-51
2023/06/16 01:53:39;;;;;;;2.63;1.65;;;25.40;1.00;;;;;;4879227;29;20049;-47
2023/06/16 01:56:06;;;;;;;2.50;1.65;;;25.40;1.00;;;;;;4880398;29;20291;-50
2023/06/16 01:58:33;;;;;;;2.78;1.55;;;25.40;1.00;;;;;;4879405;29;20477;-49
2023/06/16 02:01:05;;;;;;;2.85;1.63;;;25.40;1.00;;;;;;4880224;29;20053;-50
2023/06/16 02:03:41;;;;;;;3.15;1.77;;;25.40;1.00;;;;;;4880495;29;20064;-51
2023/06/16 02:06:15;;;;;;;2.05;1.63;;;25.40;1.00;;;;;;4879046;29;20052;-51
2023/06/16 02:08:45;;;;;;;3.35;1.70;;;25.40;1.00;;;;;;4876223;29;20091;-50
2023/06/16 02:11:15;;;;;;;2.83;1.85;;;25.40;1.00;;;;;;4878513;29;20138;-50
2023/06/16 02:13:43;;;;;;;3.13;1.80;;;25.40;1.00;;;;;;4878775;29;20136;-47
2023/06/16 02:16:10;;;;;;;2.65;1.67;;;25.40;1.00;;;;;;4878738;29;20171;-49
2023/06/16 02:18:39;;;;;;;1.75;1.40;;;25.40;1.00;;;;;;4878870;29;20410;-49
2023/06/16 02:21:06;;;;;;;3.25;1.60;;;25.40;1.00;;;;;;4878430;29;20048;-49
2023/06/16 02:23:32;;;;;;;4.70;1.48;;;25.40;1.00;;;;;;4879992;29;20120;-51
2023/06/16 02:25:59;;;;;;;2.92;1.88;;;25.40;1.00;;;;;;4878727;29;20135;-49
2023/06/16 02:28:26;;;;;;;2.63;2.17;;;25.40;1.00;;;;;;4879752;29;20045;-50
2023/06/16 02:30:53;;;;;;;2.78;1.48;;;25.40;1.00;;;;;;4878422;29;20055;-51
2023/06/16 02:33:21;;;;;;;3.35;2.03;;;25.40;1.00;;;;;;4879623;29;20041;-48
2023/06/16 02:35:48;;;;;;;2.42;1.67;;;25.40;1.00;;;;;;4879761;29;20060;-50
2023/06/16 02:38:14;;;;;;;2.63;1.42;;;25.40;1.00;;;;;;4879612;29;20510;-50
2023/06/16 02:40:41;;;;;;;3.35;2.28;;;25.40;1.00;;;;;;4878161;29;20420;-51
2023/06/16 02:43:08;;;;;;;2.80;1.88;;;25.30;1.00;;;;;;4878471;29;20048;-50
2023/06/16 02:45:35;;;;;;;3.10;1.90;;;25.30;1.00;;;;;;4879767;29;20101;-48
2023/06/16 02:48:02;;;;;;;3.10;1.67;;;25.30;1.00;;;;;;4879427;29;20033;-46
2023/06/16 02:50:30;;;;;;;2.58;1.55;;;25.30;1.00;;;;;;4878181;29;20045;-48
2023/06/16 02:53:01;;;;;;;2.33;2.05;;;25.30;1.00;;;;;;4877898;29;20065;-47
2023/06/16 02:55:28;;;;;;;2.88;1.90;;;25.30;1.00;;;;;;4878288;29;20041;-46
2023/06/16 02:57:55;;;;;;;3.30;1.90;;;25.30;1.00;;;;;;4878238;29;20505;-46
2023/06/16 03:00:23;;;;;;;2.90;2.40;;;25.30;1.00;;;;;;4877874;29;20052;-46
2023/06/16 03:03:12;;;;;;;3.30;2.00;;;25.30;1.00;;;;;;4877816;29;20182;-46
2023/06/16 03:05:43;;;;;;;3.08;1.70;;;25.30;1.00;;;;;;4877509;29;20073;-44
2023/06/16 03:08:12;;;;;;;4.82;1.63;;;25.30;1.00;;;;;;4877733;29;20045;-50
2023/06/16 03:10:39;;;;;;;2.97;2.03;;;25.20;1.00;;;;;;4873843;29;20045;-44
2023/06/16 03:13:10;;;;;;;3.20;1.75;;;25.20;1.00;;;;;;4877921;29;20116;-44
2023/06/16 03:15:37;;;;;;;2.33;1.98;;;25.20;1.00;;;;;;4878189;29;20044;-46
2023/06/16 03:18:05;;;;;;;2.28;1.60;;;25.20;1.00;;;;;;4877285;29;20128;-46
2023/06/16 03:20:34;;;;;;;2.88;1.88;;;25.20;1.00;;;;;;4877404;29;20129;-49
2023/06/16 03:23:13;;;;;;;3.63;2.00;;;25.20;1.00;;;;;;4876775;29;20072;-44
2023/06/16 03:25:40;;;;;;;2.50;1.75;;;25.20;1.00;;;;;;4877341;29;20056;-49
2023/06/16 03:28:09;;;;;;;2.95;1.65;;;25.20;1.00;;;;;;4869874;29;20045;-48
2023/06/16 03:30:36;;;;;;;3.28;2.03;;;25.20;1.00;;;;;;4877215;29;20056;-46
2023/06/16 03:33:15;;;;;;;3.75;2.10;;;25.20;1.00;;;;;;4877117;29;20132;-48
2023/06/16 03:35:45;;;;;;;2.78;2.03;;;25.20;1.00;;;;;;4862263;29;20049;-45
2023/06/16 03:38:20;;;;;;;3.53;2.38;;;25.20;1.00;;;;;;4877219;29;20448;-49
2023/06/16 03:40:50;;;;;;;2.50;1.80;;;25.20;1.00;;;;;;4872453;29;20073;-47
2023/06/16 03:43:17;;;;;;;3.80;2.05;;;25.10;1.00;;;;;;4873435;29;20466;-47
2023/06/16 03:45:45;;;;;;;4.38;2.33;;;25.10;1.00;;;;;;4876748;29;20076;-49
2023/06/16 03:48:12;;;;;;;3.10;2.13;;;25.10;1.00;;;;;;4878190;29;20472;-48
2023/06/16 03:50:45;;;;;;;4.32;2.20;;;25.20;1.00;;;;;;4876736;29;20055;-47
2023/06/16 03:53:13;;;;;;;3.67;1.90;;;25.10;1.00;;;;;;4876706;29;20081;-46
2023/06/16 03:55:43;;;;;;;2.25;1.83;;;25.10;1.00;;;;;;4876983;29;20076;-45
2023/06/16 03:58:15;;;;;;;2.40;2.00;;;25.10;1.00;;;;;;4876792;29;20047;-48
2023/06/16 04:00:43;;;;;;;2.10;1.73;;;25.10;1.00;;;;;;4861186;29;20075;-48
2023/06/16 04:03:12;;;;;;;3.47;2.25;;;25.10;1.00;;;;;;4876561;29;20425;-48
2023/06/16 04:05:39;;;;;;;2.08;1.70;;;25.10;1.00;;;;;;4876875;29;20140;-49
2023/06/16 04:08:07;;;;;;;1.90;1.73;;;25.10;1.00;;;;;;4877988;29;20049;-49
2023/06/16 04:10:35;;;;;;;6.22;1.90;;;25.10;1.00;;;;;;4880308;23;20937;-48
2023/06/16 04:13:01;;;;;;;4.78;2.83;;;25.10;1.00;;;;;;4856699;29;20045;-47
2023/06/16 04:15:32;;;;;;;4.97;3.42;;;25.10;1.00;;;;;;4852710;29;20076;-48
2023/06/16 04:18:00;;;;;;;7.68;3.17;;;25.10;1.00;;;;;;4855837;29;20136;-46
2023/06/16 04:20:28;;;;;;;6.20;2.80;;;25.00;1.00;;;;;;4868448;29;20505;-50
2023/06/16 04:22:55;;;;;;;4.30;2.88;;;25.00;1.00;;;;;;4865697;29;20480;-49
2023/06/16 04:25:23;;;;;;;10.80;3.25;;;24.90;1.00;;;;;;4861720;29;20054;-52
2023/06/16 04:27:51;;;;;;;5.65;3.55;;;24.90;1.00;;;;;;4866589;29;20038;-51
2023/06/16 04:30:22;;;;;;;7.15;3.28;;;24.80;1.00;;;;;;4866071;29;20069;-52
2023/06/16 04:32:49;;;;;;;11.55;4.70;;;24.80;1.00;;;;;;4861996;29;20083;-51
2023/06/16 04:35:19;;;;;;;9.35;4.25;;;24.80;1.00;;;;;;4860446;29;20296;-51
2023/06/16 04:37:46;;;;;;;6.88;3.28;;;24.80;1.00;;;;;;4857817;29;20054;-52
2023/06/16 04:40:13;;;;;;;6.03;2.70;;;24.80;1.00;;;;;;4857922;29;20069;-49
2023/06/16 04:42:42;;;;;;;5.55;2.30;;;24.80;1.00;;;;;;4842420;29;20053;-51
2023/06/16 04:45:10;;;;;;;6.05;2.90;;;24.80;1.00;;;;;;4857883;29;20053;-50
2023/06/16 04:47:42;;;;;;;5.68;2.35;;;24.80;1.00;;;;;;4857920;29;20124;-49
2023/06/16 04:50:10;;;;;;;7.93;3.08;;;24.80;1.00;;;;;;4857613;29;20057;-49
2023/06/16 04:52:37;;;;;;;5.70;3.03;;;24.80;1.00;;;;;;4873089;29;20520;-50
2023/06/16 04:55:05;;;;;;;6.47;2.30;;;24.80;1.00;;;;;;4857704;29;20529;-50
2023/06/16 04:57:34;;;;;;;5.75;2.17;;;24.80;1.00;;;;;;4857794;29;20056;-50
2023/06/16 05:00:06;;;;;;;3.40;2.20;;;24.70;1.00;;;;;;4866500;29;20051;-47
2023/06/16 05:02:33;;;;;;;3.88;2.65;;;24.70;1.00;;;;;;4863747;29;20053;-51
2023/06/16 05:05:03;;;;;;;3.97;2.58;;;24.70;1.00;;;;;;4858162;29;20072;-47
2023/06/16 05:07:31;;;;;;;6.00;2.38;;;24.70;1.00;;;;;;4858818;29;20465;-50
2023/06/16 05:09:58;;;;;;;5.50;2.70;;;24.70;1.00;;;;;;4857487;29;20358;-47
2023/06/16 05:12:25;;;;;;;4.80;2.40;;;24.70;1.00;;;;;;4857270;29;20049;-50
2023/06/16 05:14:53;;;;;;;11.15;2.85;;;24.70;1.00;;;;;;4857493;29;20140;-50
2023/06/16 05:17:21;;;;;;;3.47;2.50;;;24.70;1.00;;;;;;4857619;29;20080;-45
2023/06/16 05:19:48;;;;;;;2.58;2.10;;;24.80;1.00;;;;;;4872883;29;20050;-51
2023/06/16 05:22:15;;;;;;;4.18;2.78;;;24.70;1.00;;;;;;4872835;29;20053;-52
2023/06/16 05:24:42;;;;;;;6.28;3.10;;;24.70;1.00;;;;;;4842402;29;20094;-47
2023/06/16 05:27:09;;;;;;;4.85;2.40;;;24.70;1.00;;;;;;4857570;29;20073;-51
2023/06/16 05:29:36;;;;;;;3.92;2.28;;;24.70;1.00;;;;;;4858380;29;20455;-48
2023/06/16 05:32:05;;;;;;;5.28;2.75;;;24.70;1.00;;;;;;4860716;29;20049;-51
2023/06/16 05:34:32;;;;;;;5.38;2.45;;;24.70;1.00;;;;;;4860934;29;20102;-45
2023/06/16 05:36:59;;;;;;;3.78;2.13;;;24.70;1.00;;;;;;4861984;29;20082;-50
2023/06/16 05:39:27;;;;;;;3.50;2.60;;;24.70;1.00;;;;;;4860955;29;20053;-52
2023/06/16 05:41:54;;;;;;;3.53;2.70;;;24.70;1.00;;;;;;4861614;29;20049;-49
2023/06/16 05:44:21;;;;;;;4.50;2.42;;;24.70;1.00;;;;;;4860733;29;20053;-52
2023/06/16 05:46:47;;;;;;;5.00;2.60;;;24.70;1.00;;;;;;4860627;29;20140;-51
2023/06/16 05:49:16;;;;;;;5.18;2.40;;;24.70;1.00;;;;;;4875926;29;20078;-51
2023/06/16 05:51:44;;;;;;;6.78;2.47;;;24.70;1.00;;;;;;4860100;29;20582;-51
2023/06/16 05:54:11;;;;;;;5.22;2.80;;;24.70;1.00;;;;;;4861473;29;20041;-50
2023/06/16 05:56:38;;;;;;;3.28;2.20;;;24.70;1.00;;;;;;4861828;29;20122;-51
2023/06/16 05:59:05;;;;;;;2.40;1.83;;;24.70;1.00;;;;;;4860480;29;20125;-48
2023/06/16 06:01:33;;;;;;;3.00;2.20;;;24.70;1.00;;;;;;4859964;29;20050;-50
2023/06/16 06:04:00;;;;;;;4.10;1.90;;;24.70;1.00;;;;;;4860183;29;20053;-51
2023/06/16 06:06:28;;;;;;;4.55;2.00;;;24.70;1.00;;;;;;4861698;29;20649;-50
2023/06/16 06:08:55;;;;;;;3.40;2.28;;;24.70;1.00;;;;;;4860053;29;20054;-51
2023/06/16 06:11:22;;;;;;;3.10;2.20;;;24.70;1.00;;;;;;4860954;29;20048;-52
2023/06/16 06:13:49;;;;;;;6.25;2.75;;;24.70;1.00;;;;;;4844931;29;20057;-50
2023/06/16 06:16:16;;;;;;;3.65;2.15;;;24.70;1.00;;;;;;4860158;29;20045;-52
2023/06/16 06:18:47;;;;;;;3.58;2.15;;;24.80;1.00;;;;;;4859888;29;20052;-51
2023/06/16 06:21:14;;;;;;;2.58;2.05;;;24.80;1.00;;;;;;4859556;29;20611;-48
2023/06/16 06:23:41;;;;;;;4.47;2.40;;;24.80;1.00;;;;;;4860033;29;20049;-50
2023/06/16 06:26:09;;;;;;;2.65;1.90;;;24.80;1.00;;;;;;4861169;29;20189;-52
2023/06/16 06:28:36;;;;;;;5.55;2.63;;;24.80;1.00;;;;;;4861100;29;20060;-50
2023/06/16 06:31:02;;;;;;;2.85;2.53;;;24.80;1.00;;;;;;4859435;29;20498;-48
2023/06/16 06:33:31;;;;;;;3.80;2.55;;;24.80;1.00;;;;;;4859738;29;20063;-49
2023/06/16 06:35:58;;;;;;;5.20;2.85;;;24.80;1.00;;;;;;4861030;29;20041;-45
2023/06/16 06:38:26;;;;;;;2.92;1.90;;;24.80;1.00;;;;;;4860933;29;20438;-51
2023/06/16 06:40:53;;;;;;;4.15;2.63;;;24.80;1.00;;;;;;4858456;29;20042;-52
2023/06/16 06:43:20;;;;;;;2.92;1.98;;;24.80;1.00;;;;;;4859274;29;20045;-51
2023/06/16 06:45:52;;;;;;;2.75;2.33;;;24.90;1.00;;;;;;4859496;29;20049;-45
2023/06/16 06:48:20;;;;;;;3.90;2.17;;;24.90;1.00;;;;;;4859338;29;20413;-48
2023/06/16 06:50:52;;;;;;;2.50;2.00;;;24.90;1.00;;;;;;4859361;29;20066;-45
2023/06/16 06:53:19;;;;;;;2.40;2.10;;;24.90;1.00;;;;;;4859056;29;20102;-51
2023/06/16 06:55:46;;;;;;;6.10;2.38;;;24.90;1.00;;;;;;4859517;29;20071;-47
2023/06/16 06:58:13;;;;;;;2.83;1.85;;;24.90;1.00;;;;;;4860756;29;20484;-50
2023/06/16 07:00:40;;;;;;;3.55;2.42;;;24.90;1.00;;;;;;4860686;29;20135;-52
2023/06/16 07:03:06;;;;;;;3.90;2.00;;;24.90;1.00;;;;;;4860071;29;20056;-49
2023/06/16 07:05:34;;;;;;;3.50;1.98;;;25.00;1.00;;;;;;4860585;29;20050;-46
2023/06/16 07:08:04;;;;;;;3.10;2.05;;;25.00;1.00;;;;;;4860263;29;20053;-51
2023/06/16 07:10:32;;;;;;;2.55;2.22;;;25.00;1.00;;;;;;4860148;29;20050;-50
2023/06/16 07:12:59;;;;;;;2.80;2.50;;;25.00;1.00;;;;;;4858632;29;20053;-47
2023/06/16 07:15:26;;;;;;;2.83;2.22;;;25.00;1.00;;;;;;4860066;29;20049;-45
2023/06/16 07:17:53;;;;;;;4.72;2.35;;;25.00;1.00;;;;;;4860010;29;20049;-48
2023/06/16 07:20:20;;;;;;;3.53;1.98;;;25.10;1.00;;;;;;4852506;29;20041;-46
2023/06/16 07:22:47;;;;;;;4.90;2.28;;;25.00;1.00;;;;;;4859977;29;20471;-51
2023/06/16 07:25:17;;;;;;;3.67;2.00;;;25.10;1.00;;;;;;4860206;29;20532;-50
2023/06/16 07:27:44;;;;;;;2.38;1.92;;;25.10;1.00;;;;;;4860099;29;20041;-51
2023/06/16 07:30:11;;;;;;;4.05;2.30;;;25.10;1.00;;;;;;4859583;29;20427;-47
2023/06/16 07:32:39;;;;;;;2.90;1.48;;;25.10;1.00;;;;;;4860023;29;20371;-51
2023/06/16 07:35:08;;;;;;;2.67;2.00;;;25.10;1.00;;;;;;4859828;29;20042;-47
2023/06/16 07:37:35;;;;;;;3.75;1.70;;;25.10;1.00;;;;;;4858823;29;20045;-50
2023/06/16 07:40:04;;;;;;;3.45;2.17;;;25.20;1.00;;;;;;4859760;29;20570;-52
2023/06/16 07:42:31;;;;;;;5.22;2.15;;;25.20;1.00;;;;;;4860234;29;20101;-51
2023/06/16 07:44:58;;;;;;;3.38;2.20;;;25.20;1.00;;;;;;4860068;29;20534;-52
2023/06/16 07:47:25;;;;;;;3.80;2.40;;;25.20;1.00;;;;;;4859922;29;20045;-51
2023/06/16 07:49:51;;;;;;;2.65;1.80;;;25.20;1.00;;;;;;4859759;29;20128;-52
2023/06/16 07:52:18;;;;;;;2.80;2.17;;;25.20;1.00;;;;;;4859213;29;20038;-52
2023/06/16 07:54:46;;;;;;;2.10;1.90;;;25.20;1.00;;;;;;4873689;29;20565;-51
2023/06/16 07:57:13;;;;;;;4.88;2.03;;;25.20;1.00;;;;;;4859355;29;20052;-51
2023/06/16 07:59:40;;;;;;;2.83;1.73;;;25.20;1.00;;;;;;4859523;29;20045;-51
2023/06/16 08:02:07;;;;;;;3.50;2.35;;;25.20;1.00;;;;;;4859085;29;20041;-51
2023/06/16 08:04:34;;;;;;;1.98;1.38;;;25.20;1.00;;;;;;4859506;29;20045;-51
2023/06/16 08:07:01;;;;;;;3.25;1.77;;;25.20;1.00;;;;;;4859466;29;20053;-52
2023/06/16 08:09:28;;;;;;;2.45;1.92;;;25.20;1.00;;;;;;4859377;29;20105;-48
2023/06/16 08:11:55;;;;;;;3.08;1.85;;;25.20;1.00;;;;;;4859134;29;20048;-52
2023/06/16 08:14:22;;;;;;;3.13;2.15;;;25.30;1.00;;;;;;4859204;29;20045;-48
2023/06/16 08:16:49;;;;;;;3.90;2.38;;;25.20;1.00;;;;;;4859342;29;20410;-51
2023/06/16 08:19:15;;;;;;;3.05;1.70;;;25.20;1.00;;;;;;4859278;29;20497;-51
2023/06/16 08:21:42;;;;;;;4.18;2.45;;;25.20;1.00;;;;;;4859028;29;20407;-51
2023/06/16 08:24:09;;;;;;;3.30;2.20;;;25.20;1.00;;;;;;4859438;29;20423;-50
2023/06/16 08:26:36;;;;;;;2.33;1.85;;;25.20;1.00;;;;;;4859350;29;20080;-51
2023/06/16 08:29:05;;;;;;;1.85;1.50;;;25.20;1.00;;;;;;4859104;29;20045;-49
2023/06/16 08:31:32;;;;;;;2.95;1.90;;;25.30;1.00;;;;;;4858814;29;20046;-50
2023/06/16 08:33:59;;;;;;;2.67;1.90;;;25.30;1.00;;;;;;4859353;29;20056;-52
2023/06/16 08:36:26;;;;;;;3.22;1.73;;;25.30;1.00;;;;;;4859334;29;20033;-50
2023/06/16 08:38:53;;;;;;;4.35;1.90;;;25.30;1.00;;;;;;4859113;29;20120;-51
2023/06/16 08:41:21;;;;;;;2.65;2.10;;;25.30;1.00;;;;;;4858939;29;20057;-50
2023/06/16 08:43:50;;;;;;;2.35;2.00;;;25.30;1.00;;;;;;4859053;29;20223;-51
2023/06/16 08:46:17;;;;;;;2.45;1.83;;;25.30;1.00;;;;;;4859142;29;20049;-49
2023/06/16 08:48:44;;;;;;;3.90;1.90;;;25.30;1.00;;;;;;4857868;29;20117;-52
2023/06/16 08:51:16;;;;;;;2.38;1.73;;;25.30;1.00;;;;;;4858648;29;20044;-50
2023/06/16 08:53:47;;;;;;;2.72;2.10;;;25.30;1.00;;;;;;4858995;29;20068;-49
2023/06/16 08:56:17;;;;;;;2.95;1.83;;;25.30;1.00;;;;;;4859041;29;20049;-50
2023/06/16 08:58:47;;;;;;;3.47;2.10;;;25.30;1.00;;;;;;4858955;29;20124;-52
2023/06/16 09:01:15;;;;;;;3.38;1.75;;;25.30;1.00;;;;;;4858578;29;20066;-52
2023/06/16 09:03:47;;;;;;;4.07;2.17;;;25.30;1.00;;;;;;4858907;29;20045;-51
2023/06/16 09:06:15;;;;;;;2.72;2.45;;;25.30;1.00;;;;;;4862513;29;20069;-52
2023/06/16 09:08:42;;;;;;;2.55;2.15;;;25.30;1.00;;;;;;4862495;29;20125;-48
2023/06/16 09:11:09;;;;;;;3.65;1.80;;;25.30;1.00;;;;;;4862075;29;20076;-49
2023/06/16 09:13:42;;;;;;;3.60;2.05;;;25.30;1.00;;;;;;4862392;29;20045;-52
2023/06/16 09:16:15;;;;;;;2.30;1.70;;;25.30;1.00;;;;;;4862301;29;20117;-51
2023/06/16 09:18:44;;;;;;;3.85;2.58;;;25.30;1.00;;;;;;4862774;29;20045;-52
2023/06/16 09:21:11;;;;;;;2.13;1.55;;;25.30;1.00;;;;;;4862104;29;20049;-52
2023/06/16 09:23:42;;;;;;;11.07;2.08;;;25.30;1.00;;;;;;4862332;29;20049;-50
2023/06/16 09:26:11;;;;;;;3.10;1.92;;;25.30;1.00;;;;;;4862231;29;20033;-50
2023/06/16 09:28:39;;;;;;;2.55;2.08;;;25.30;1.00;;;;;;4862205;29;20056;-51
2023/06/16 09:31:11;;;;;;;2.25;1.73;;;25.30;1.00;;;;;;4861801;29;20057;-51
2023/06/16 09:33:40;;;;;;;3.08;2.28;;;25.30;1.00;;;;;;4862032;29;20064;-51
2023/06/16 09:36:08;;;;;;;2.25;1.58;;;25.40;1.00;;;;;;4862099;29;20047;-52
2023/06/16 09:38:36;;;;;;;2.22;1.73;;;25.30;1.00;;;;;;4862022;29;20076;-51
2023/06/16 09:41:08;;;;;;;2.65;2.10;;;25.40;1.00;;;;;;4861697;29;20045;-51
2023/06/16 09:43:37;;;;;;;2.25;1.65;;;25.40;1.00;;;;;;4862137;29;20494;-52
2023/06/16 09:46:08;;;;;;;4.50;2.03;;;25.40;1.00;;;;;;4861904;29;20041;-50
2023/06/16 09:48:43;;;;;;;1.88;1.55;;;25.40;1.00;;;;;;4861886;29;20398;-52
2023/06/16 09:51:10;;;;;;;2.45;1.60;;;25.40;1.00;;;;;;4861571;29;20128;-49
2023/06/16 09:53:38;;;;;;;3.67;1.83;;;25.40;1.00;;;;;;4861904;29;20048;-45
2023/06/16 09:56:06;;;;;;;1.67;1.40;;;25.40;1.00;;;;;;4861911;29;20113;-46
2023/06/16 09:58:32;;;;;;;2.60;2.00;;;25.40;1.00;;;;;;4861772;29;20045;-45
2023/06/16 10:01:10;;;;;;;2.00;1.48;;;25.40;1.00;;;;;;4861875;29;20439;-45
2023/06/16 10:03:39;;;;;;;2.15;1.75;;;25.30;1.00;;;;;;4861755;29;20501;-45
2023/06/16 10:06:15;;;;;;;3.08;1.88;;;25.40;1.00;;;;;;4861650;29;20069;-46
2023/06/16 10:08:43;;;;;;;5.35;2.25;;;25.40;1.00;;;;;;4861562;29;20041;-45
2023/06/16 10:11:14;;;;;;;1.98;1.77;;;25.40;1.00;;;;;;4861490;29;20045;-45
2023/06/16 10:13:50;;;;;;;3.17;1.80;;;25.40;1.00;;;;;;4861322;29;20513;-45
2023/06/16 10:16:20;;;;;;;2.13;1.55;;;25.40;1.00;;;;;;4861483;29;20121;-52
2023/06/16 10:18:48;;;;;;;2.17;1.60;;;25.40;1.00;;;;;;4860207;29;20045;-46
2023/06/16 10:21:15;;;;;;;2.40;1.60;;;25.40;1.00;;;;;;4860860;29;20052;-49
2023/06/16 10:23:43;;;;;;;2.17;1.48;;;25.40;1.00;;;;;;4861424;29;20351;-47
2023/06/16 10:26:12;;;;;;;3.53;2.00;;;25.40;1.00;;;;;;4861278;29;20038;-52
2023/06/16 10:28:40;;;;;;;2.65;1.65;;;25.40;1.00;;;;;;4859787;29;20049;-46
2023/06/16 10:31:08;;;;;;;2.70;1.88;;;25.40;1.00;;;;;;4860734;29;20447;-51
2023/06/16 10:33:53;;;;;;;3.25;1.63;;;25.40;1.00;;;;;;4859888;29;20048;-48
2023/06/16 10:36:27;;;;;;;3.25;1.60;;;25.40;1.00;;;;;;4861110;29;20102;-49
2023/06/16 10:38:59;;;;;;;1.90;1.48;;;25.30;1.00;;;;;;4861016;29;20401;-51
2023/06/16 10:41:29;;;;;;;1.83;1.30;;;25.40;1.00;;;;;;4860575;29;20109;-49
2023/06/16 10:44:15;;;;;;;2.60;1.42;;;25.30;1.00;;;;;;4860914;29;20041;-44
2023/06/16 10:46:42;;;;;;;3.55;1.50;;;25.40;1.00;;;;;;4859694;29;20042;-51
2023/06/16 10:49:15;;;;;;;2.40;1.45;;;25.30;1.00;;;;;;4860656;29;20125;-46
2023/06/16 10:51:49;;;;;;;2.40;1.38;;;25.30;1.00;;;;;;4859193;29;20061;-46
2023/06/16 10:54:37;;;;;;;2.08;1.60;;;25.40;1.00;;;;;;4860731;29;20049;-47
2023/06/16 10:57:07;;;;;;;2.78;1.52;;;25.40;1.00;;;;;;4860686;29;20045;-51
2023/06/16 10:59:56;;;;;;;2.63;1.52;;;25.30;1.00;;;;;;4860725;29;20426;-47
2023/06/16 11:02:26;;;;;;;1.88;1.50;;;25.30;1.00;;;;;;4860315;29;20052;-50
2023/06/16 11:05:11;;;;;;;1.45;1.10;;;25.30;1.00;;;;;;4860682;29;20098;-45
2023/06/16 11:08:06;;;;;;;2.22;1.40;;;25.30;1.00;;;;;;4860608;29;20136;-48
2023/06/16 11:11:15;;;;;;;1.88;1.30;;;25.30;1.00;;;;;;4859546;29;20053;-51
2023/06/16 11:13:42;;;;;;;1.92;1.40;;;25.30;1.00;;;;;;4858301;29;20417;-50
2023/06/16 11:16:09;;;;;;;1.85;1.58;;;25.30;1.00;;;;;;4860478;29;20461;-51
2023/06/16 11:18:36;;;;;;;5.43;1.40;;;25.30;1.00;;;;;;4860153;29;20037;-51
2023/06/16 11:21:07;;;;;;;1.85;1.30;;;25.30;1.00;;;;;;4860191;29;20097;-51
2023/06/16 11:23:38;;;;;;;2.20;1.25;;;25.30;1.00;;;;;;4858970;29;20509;-51
2023/06/16 11:26:11;;;;;;;1.88;1.33;;;25.30;1.00;;;;;;4860155;29;20050;-48
2023/06/16 11:28:40;;;;;;;2.83;1.50;;;25.30;1.00;;;;;;4859572;29;20046;-51
2023/06/16 11:31:12;;;;;;;2.15;1.48;;;25.30;1.00;;;;;;4859680;29;20038;-49
2023/06/16 11:33:40;;;;;;;1.33;1.10;;;25.30;1.00;;;;;;4860079;29;20402;-50
2023/06/16 11:36:16;;;;;;;3.28;1.20;;;25.30;1.00;;;;;;4860087;29;20052;-51
2023/06/16 11:38:45;;;;;;;2.45;1.20;;;25.30;1.00;;;;;;4859984;29;20132;-48
2023/06/16 11:41:27;;;;;;;2.28;1.00;;;25.30;1.00;;;;;;4859481;29;20054;-49
2023/06/16 11:43:55;;;;;;;2.77;1.40;;;25.30;1.00;;;;;;4860056;29;20106;-51
2023/06/16 11:46:26;;;;;;;2.53;1.30;;;25.30;1.00;;;;;;4859514;29;20506;-48
2023/06/16 11:48:54;;;;;;;2.43;1.20;;;25.30;1.00;;;;;;4859657;29;20072;-47
2023/06/16 11:51:22;;;;;;;1.77;1.10;;;25.30;1.00;;;;;;4859474;29;20121;-50
2023/06/16 11:53:50;;;;;;;1.58;1.10;;;25.30;1.00;;;;;;4859620;29;20462;-48
2023/06/16 11:56:17;;;;;;;1.80;1.17;;;25.30;1.00;;;;;;4859995;29;20045;-50
2023/06/16 11:58:45;;;;;;;1.80;1.23;;;25.30;1.00;;;;;;4859558;29;20128;-51
2023/06/16 12:01:14;;;;;;;2.70;1.27;;;25.20;1.00;;;;;;4859151;29;20109;-49
2023/06/16 12:03:44;;;;;;;1.42;0.95;;;25.30;1.00;;;;;;4859668;29;20080;-49
2023/06/16 12:06:31;;;;;;;2.97;1.60;;;25.20;1.00;;;;;;4859594;29;20082;-48
2023/06/16 12:08:59;;;;;;;1.92;1.17;;;25.20;1.00;;;;;;4859544;29;20041;-51
2023/06/16 12:11:30;;;;;;;1.45;1.02;;;25.20;1.00;;;;;;4859003;29;20045;-51
2023/06/16 12:13:57;;;;;;;1.67;1.08;;;25.20;1.00;;;;;;4859496;29;20052;-51
2023/06/16 12:16:26;;;;;;;1.70;1.10;;;25.20;1.00;;;;;;4859643;29;20060;-51
2023/06/16 12:18:53;;;;;;;1.90;1.25;;;25.20;1.00;;;;;;4859532;29;20045;-50
2023/06/16 12:21:26;;;;;;;2.47;1.35;;;25.20;1.00;;;;;;4858931;29;20498;-47
2023/06/16 12:23:58;;;;;;;2.95;1.10;;;25.20;1.00;;;;;;4859705;29;20053;-51
2023/06/16 12:26:40;;;;;;;4.63;1.30;;;25.20;1.00;;;;;;4859019;29;20045;-51
2023/06/16 12:29:15;;;;;;;1.90;1.10;;;25.20;1.00;;;;;;4859549;29;20049;-49
2023/06/16 12:32:08;;;;;;;1.77;1.27;;;25.20;1.00;;;;;;4859069;29;20045;-50
2023/06/16 12:34:35;;;;;;;1.80;1.17;;;25.20;1.00;;;;;;4858528;29;20067;-48
2023/06/16 12:37:10;;;;;;;2.83;1.02;;;25.20;1.00;;;;;;4859314;29;20585;-49
2023/06/16 12:39:40;;;;;;;1.38;0.73;;;25.20;1.00;;;;;;4859269;29;20049;-51
2023/06/16 12:42:10;;;;;;;1.52;0.85;;;25.20;1.00;;;;;;4862650;29;20456;-48
2023/06/16 12:44:59;;;;;;;1.63;0.95;;;25.20;1.00;;;;;;4855424;29;20069;-49
2023/06/16 12:47:28;;;;;;;1.80;1.13;;;25.20;1.00;;;;;;4862902;29;20111;-51
2023/06/16 12:50:26;;;;;;;3.97;1.40;;;25.20;1.00;;;;;;4862648;29;20041;-60
2023/06/16 12:52:53;;;;;;;1.85;1.10;;;25.20;1.00;;;;;;4842675;29;20057;-51
2023/06/16 12:55:20;;;;;;;1.83;1.08;;;25.20;1.00;;;;;;4844401;29;20049;-51
2023/06/16 12:57:47;;;;;;;1.60;1.13;;;25.20;1.00;;;;;;4844638;29;20419;-50
2023/06/16 13:00:14;;;;;;;2.28;1.35;;;25.20;1.00;;;;;;4844142;29;20041;-50
2023/06/16 13:02:42;;;;;;;2.20;1.38;;;25.20;1.00;;;;;;4844232;29;20057;-51
2023/06/16 13:05:09;;;;;;;2.28;1.42;;;25.20;1.00;;;;;;4844337;29;20048;-46
2023/06/16 13:07:36;;;;;;;1.63;1.05;;;25.20;1.00;;;;;;4842924;29;20050;-50
2023/06/16 13:10:03;;;;;;;1.92;1.20;;;25.20;1.00;;;;;;4843953;29;20090;-50